Kota Ria — 9VJK4 — position and weather

sailwx.info

Track history (hours):
 
Tides and Currents Weather Stations Pressure Air Temp Water Temp Dewpoint Dewpoint Depression Visibility Wind Speed Wind Dir Waves Ship Positions

Kota Ria

Last reported at 2014-Nov-19 00:16 UTC. Time now 2014-Nov-23 04:30 UTC.
Position N 01°15' E 104°04'.

Length 146 m; draft 7.2 m.

Type: Ship. MMSI: 565050000.

Date/timePositionNaut miles runAvg speedWind from/ knotsBaromVisibWave heightAir tempDewpointWater temp
2014-Nov-19 00:16N 01°15' E 104°04'912.8
2014-Nov-18 23:32N 01°13' E 103°54'8 8.0
2014-Nov-18 22:33N 01°14' E 103°47'3 2.6
2014-Nov-18 21:33N 01°17' E 103°46'0 0.0
2014-Nov-18 20:33N 01°17' E 103°46'0 0.0
2014-Nov-18 19:33N 01°17' E 103°46'0 0.0
2014-Nov-18 18:33N 01°17' E 103°46'0 0.0
2014-Nov-18 17:33N 01°17' E 103°46'0 0.0
2014-Nov-18 16:30N 01°17' E 103°46'0 0.0
2014-Nov-18 15:33N 01°17' E 103°46'0 0.0
2014-Nov-18 14:33N 01°17' E 103°46'0 0.0
2014-Nov-18 13:33N 01°17' E 103°46'0 0.0
2014-Nov-18 12:33N 01°17' E 103°46'0 0.0
2014-Nov-18 11:33N 01°17' E 103°46'0 0.0
2014-Nov-18 10:33N 01°17' E 103°46'0 0.0
2014-Nov-18 09:27N 01°17' E 103°46'0 0.0
2014-Nov-18 08:33N 01°17' E 103°46'0 0.0
2014-Nov-18 07:33N 01°17' E 103°46'0 0.0
2014-Nov-18 06:33N 01°17' E 103°46'0 0.0
2014-Nov-18 05:33N 01°17' E 103°46'0 0.0
2014-Nov-18 04:33N 01°17' E 103°46'0 0.0
2014-Nov-18 03:33N 01°17' E 103°46'0 0.0
2014-Nov-18 02:33N 01°17' E 103°46'0 0.0
2014-Nov-18 01:33N 01°17' E 103°46'0 0.0
2014-Nov-18 00:33N 01°17' E 103°46'0 0.0
2014-Nov-17 23:33N 01°17' E 103°46'0 0.0
2014-Nov-17 22:21N 01°17' E 103°46'0 0.0
2014-Nov-17 21:33N 01°17' E 103°46'0 0.0
2014-Nov-17 20:33N 01°17' E 103°46'0 0.0
2014-Nov-17 19:33N 01°17' E 103°46'0 0.0
2014-Nov-17 18:33N 01°17' E 103°46'1 0.9
2014-Nov-17 17:33N 01°17' E 103°45'8 8.3
2014-Nov-17 16:33N 01°13' E 103°52'5 4.9
2014-Nov-17 15:33N 01°15' E 103°57'9 9.3
2014-Nov-17 14:33N 01°16' E 104°06'10 9.9
2014-Nov-17 13:33N 01°18' E 104°16'  
2014-Nov-11 20:23N 01°15' E 104°03'1113.2
2014-Nov-11 19:33N 01°12' E 103°52'8 1.6
2014-Nov-11 14:05N 01°17' E 103°46'0 0.0
2014-Nov-11 13:29N 01°17' E 103°46'0 0.0
2014-Nov-11 12:32N 01°17' E 103°46'0 0.0
2014-Nov-11 11:14N 01°17' E 103°46'0 0.0
2014-Nov-11 10:32N 01°17' E 103°46'0 0.0
2014-Nov-11 07:20N 01°17' E 103°46'0 0.0
2014-Nov-11 06:05N 01°17' E 103°46'0 0.1
2014-Nov-11 05:26N 01°17' E 103°46'0 0.0
2014-Nov-11 04:32N 01°17' E 103°46'0 0.0
2014-Nov-11 03:26N 01°17' E 103°46'0 0.0
2014-Nov-11 02:29N 01°17' E 103°46'0 0.0
2014-Nov-11 01:32N 01°17' E 103°46'0 0.0
2014-Nov-11 00:32N 01°17' E 103°46'0 0.0
2014-Nov-10 23:32N 01°17' E 103°46'0 0.0
2014-Nov-10 22:32N 01°17' E 103°46'0 0.0
2014-Nov-10 21:27N 01°17' E 103°46'3 2.8
2014-Nov-10 20:33N 01°15' E 103°47'7 6.9
2014-Nov-10 19:33N 01°13' E 103°53'7 6.9
2014-Nov-10 18:33N 01°15' E 103°60'1211.3
2014-Nov-10 17:32N 01°17' E 104°11'  
Track history (hours):
 
Tides and Currents Weather Stations Pressure Air Temp Water Temp Dewpoint Dewpoint Depression Visibility Wind Speed Wind Dir Waves Ship Positions

Kota Ria

Last reported at 2014-Nov-19 00:16 UTC. Time now 2014-Nov-23 04:31 UTC.
Position N 01°15' E 104°04'.

Length 146 m; draft 7.2 m.

Type: Ship. MMSI: 565050000.

Date/timePositionNaut miles runAvg speedWind from/ knotsBaromVisibWave heightAir tempDewpointWater temp
2014-Nov-19 00:16N 01°15' E 104°04'912.8
2014-Nov-18 23:32N 01°13' E 103°54'8 8.0
2014-Nov-18 22:33N 01°14' E 103°47'3 2.6
2014-Nov-18 21:33N 01°17' E 103°46'0 0.0
2014-Nov-18 20:33N 01°17' E 103°46'0 0.0
2014-Nov-18 19:33N 01°17' E 103°46'0 0.0
2014-Nov-18 18:33N 01°17' E 103°46'0 0.0
2014-Nov-18 17:33N 01°17' E 103°46'0 0.0
2014-Nov-18 16:30N 01°17' E 103°46'0 0.0
2014-Nov-18 15:33N 01°17' E 103°46'0 0.0
2014-Nov-18 14:33N 01°17' E 103°46'0 0.0
2014-Nov-18 13:33N 01°17' E 103°46'0 0.0
2014-Nov-18 12:33N 01°17' E 103°46'0 0.0
2014-Nov-18 11:33N 01°17' E 103°46'0 0.0
2014-Nov-18 10:33N 01°17' E 103°46'0 0.0
2014-Nov-18 09:27N 01°17' E 103°46'0 0.0
2014-Nov-18 08:33N 01°17' E 103°46'0 0.0
2014-Nov-18 07:33N 01°17' E 103°46'0 0.0
2014-Nov-18 06:33N 01°17' E 103°46'0 0.0
2014-Nov-18 05:33N 01°17' E 103°46'0 0.0
2014-Nov-18 04:33N 01°17' E 103°46'0 0.0
2014-Nov-18 03:33N 01°17' E 103°46'0 0.0
2014-Nov-18 02:33N 01°17' E 103°46'0 0.0
2014-Nov-18 01:33N 01°17' E 103°46'0 0.0
2014-Nov-18 00:33N 01°17' E 103°46'0 0.0
2014-Nov-17 23:33N 01°17' E 103°46'0 0.0
2014-Nov-17 22:21N 01°17' E 103°46'0 0.0
2014-Nov-17 21:33N 01°17' E 103°46'0 0.0
2014-Nov-17 20:33N 01°17' E 103°46'0 0.0
2014-Nov-17 19:33N 01°17' E 103°46'0 0.0
2014-Nov-17 18:33N 01°17' E 103°46'1 0.9
2014-Nov-17 17:33N 01°17' E 103°45'8 8.3
2014-Nov-17 16:33N 01°13' E 103°52'5 4.9
2014-Nov-17 15:33N 01°15' E 103°57'9 9.3
2014-Nov-17 14:33N 01°16' E 104°06'10 9.9
2014-Nov-17 13:33N 01°18' E 104°16'  
2014-Nov-11 20:23N 01°15' E 104°03'1113.2
2014-Nov-11 19:33N 01°12' E 103°52'8 1.6
2014-Nov-11 14:05N 01°17' E 103°46'0 0.0
2014-Nov-11 13:29N 01°17' E 103°46'0 0.0
2014-Nov-11 12:32N 01°17' E 103°46'0 0.0
2014-Nov-11 11:14N 01°17' E 103°46'0 0.0
2014-Nov-11 10:32N 01°17' E 103°46'0 0.0
2014-Nov-11 07:20N 01°17' E 103°46'0 0.0
2014-Nov-11 06:05N 01°17' E 103°46'0 0.1
2014-Nov-11 05:26N 01°17' E 103°46'0 0.0
2014-Nov-11 04:32N 01°17' E 103°46'0 0.0
2014-Nov-11 03:26N 01°17' E 103°46'0 0.0
2014-Nov-11 02:29N 01°17' E 103°46'0 0.0
2014-Nov-11 01:32N 01°17' E 103°46'0 0.0
2014-Nov-11 00:32N 01°17' E 103°46'0 0.0
2014-Nov-10 23:32N 01°17' E 103°46'0 0.0
2014-Nov-10 22:32N 01°17' E 103°46'0 0.0
2014-Nov-10 21:27N 01°17' E 103°46'3 2.8
2014-Nov-10 20:33N 01°15' E 103°47'7 6.9
2014-Nov-10 19:33N 01°13' E 103°53'7 6.9
2014-Nov-10 18:33N 01°15' E 103°60'1211.3
2014-Nov-10 17:32N 01°17' E 104°11'  

Dump ship's entire track history